Tylersville, Pennsylvania
Current Conditions -  °F | °C
As of 12:53 PM on Monday 24 Nov 2014 (Local Time) from KUNV Reporting Station
Broken Clouds Broken Clouds  
Wind Chill: 66°   Ceiling: 5500
Heat Index: 66°   Visibility: 10mi
Dew Point: 52°   Wind: 15mph
Humidity: 60%   Direction: 190°S
Pressure: 29.47"   Gusts: 25mph
Location:  40.99°N, 77.42°W
Report Text: KUNV 241753Z 19013G22KT 10SM SCT035 BKN055 19/11 A2947
Loading
Personal Weather Stations






























Interactive Weather Map New forecast layout! Learn more

10-Day Weather Forecast

Advertisements
Track Severe Weather on mobile